createdAt,value
2022-07-25T00:01:54.527Z,12.40
2022-07-25T00:04:22.106Z,13.30
2022-07-25T00:06:48.979Z,12.88
2022-07-25T00:09:15.744Z,12.48
2022-07-25T00:11:42.707Z,13.18
2022-07-25T00:14:09.841Z,12.85
2022-07-25T00:16:36.938Z,11.70
2022-07-25T00:19:03.989Z,12.55
2022-07-25T00:21:30.688Z,12.57
2022-07-25T00:23:57.311Z,11.68
2022-07-25T00:26:24.259Z,11.85
2022-07-25T00:28:51.067Z,12.25
2022-07-25T00:31:17.815Z,11.45
2022-07-25T00:33:44.759Z,13.02
2022-07-25T00:36:11.527Z,11.95
2022-07-25T00:38:38.176Z,12.23
2022-07-25T00:41:05.634Z,11.68
2022-07-25T00:43:33.005Z,12.65
2022-07-25T00:45:59.936Z,12.40
2022-07-25T00:48:28.859Z,12.73
2022-07-25T00:50:56.611Z,12.40
2022-07-25T00:53:23.970Z,12.45
2022-07-25T00:55:51.629Z,11.95
2022-07-25T00:58:18.965Z,12.25
2022-07-25T01:00:46.018Z,12.05
2022-07-25T01:03:13.098Z,12.23
2022-07-25T01:05:40.040Z,11.40
2022-07-25T01:08:08.832Z,12.07
2022-07-25T01:10:36.169Z,11.75
2022-07-25T01:13:02.855Z,12.35
2022-07-25T01:15:30.248Z,12.50
2022-07-25T01:17:57.498Z,12.13
2022-07-25T01:20:26.867Z,12.50
2022-07-25T01:22:53.914Z,13.23
2022-07-25T01:25:21.315Z,12.37
2022-07-25T01:27:54.643Z,12.35
2022-07-25T01:30:23.778Z,11.98
2022-07-25T01:32:50.868Z,11.60
2022-07-25T01:35:17.715Z,12.30
2022-07-25T01:37:45.508Z,12.27
2022-07-25T01:40:13.804Z,12.37
2022-07-25T01:42:41.108Z,12.20
2022-07-25T01:45:08.795Z,12.18
2022-07-25T01:47:35.580Z,11.93
2022-07-25T01:50:02.248Z,12.23
2022-07-25T01:52:29.203Z,12.07
2022-07-25T01:54:55.959Z,12.37
2022-07-25T01:57:23.304Z,12.02
2022-07-25T01:59:57.087Z,12.15
2022-07-25T02:02:24.067Z,12.07
2022-07-25T02:04:51.022Z,11.52
2022-07-25T02:07:17.717Z,11.00
2022-07-25T02:09:44.405Z,11.73
2022-07-25T02:12:11.370Z,11.65
2022-07-25T02:14:38.321Z,12.18
2022-07-25T02:17:05.187Z,10.85
2022-07-25T02:19:32.521Z,10.98
2022-07-25T02:21:59.307Z,11.82
2022-07-25T02:24:26.229Z,11.45
2022-07-25T02:26:53.225Z,11.32
2022-07-25T02:29:21.910Z,11.18
2022-07-25T02:31:49.452Z,11.75
2022-07-25T02:34:16.485Z,11.02
2022-07-25T02:36:43.346Z,10.57
2022-07-25T02:39:10.180Z,11.52
2022-07-25T02:41:37.264Z,11.73
2022-07-25T02:44:05.452Z,10.63
2022-07-25T02:46:33.264Z,11.07
2022-07-25T02:49:00.364Z,11.07
2022-07-25T02:51:27.042Z,10.73
2022-07-25T02:54:08.883Z,11.75
2022-07-25T02:56:35.827Z,11.12
2022-07-25T02:59:02.542Z,10.48
2022-07-25T03:01:29.445Z,10.80
2022-07-25T03:03:56.548Z,10.55
2022-07-25T03:06:23.294Z,10.90
2022-07-25T03:08:50.022Z,10.27
2022-07-25T03:11:16.968Z,10.00
2022-07-25T03:13:43.640Z,10.27
2022-07-25T03:16:10.693Z,10.05
2022-07-25T03:18:38.812Z,9.57
2022-07-25T03:21:05.705Z,10.52
2022-07-25T03:23:32.425Z,10.27
2022-07-25T03:25:59.391Z,10.32
2022-07-25T03:28:26.209Z,9.98
2022-07-25T03:30:53.378Z,10.02
2022-07-25T03:33:20.358Z,10.15
2022-07-25T03:35:47.289Z,9.85
2022-07-25T03:38:14.188Z,10.10
2022-07-25T03:40:41.125Z,10.43
2022-07-25T03:43:07.860Z,9.90
2022-07-25T03:45:34.788Z,10.43
2022-07-25T03:48:02.126Z,10.05
2022-07-25T03:50:28.829Z,9.85
2022-07-25T03:52:55.504Z,10.25
2022-07-25T03:55:22.442Z,10.00
2022-07-25T03:57:49.178Z,10.07
2022-07-25T04:00:16.317Z,9.60
2022-07-25T04:02:43.378Z,10.00
2022-07-25T04:05:10.993Z,10.25
2022-07-25T04:07:38.305Z,10.00
2022-07-25T04:10:06.202Z,10.15
2022-07-25T04:12:33.313Z,10.32
2022-07-25T04:15:00.273Z,9.43
2022-07-25T04:17:27.299Z,9.68
2022-07-25T04:19:53.985Z,10.00
2022-07-25T04:22:22.527Z,9.73
2022-07-25T04:24:49.495Z,10.63
2022-07-25T04:27:16.762Z,8.88
2022-07-25T04:29:43.412Z,9.65
2022-07-25T04:32:10.479Z,9.75
2022-07-25T04:34:37.172Z,9.88
2022-07-25T04:37:03.814Z,9.25
2022-07-25T04:39:30.828Z,9.57
2022-07-25T04:41:57.504Z,9.63
2022-07-25T04:44:24.500Z,9.55
2022-07-25T04:46:51.522Z,9.60
2022-07-25T04:49:18.251Z,9.77
2022-07-25T04:51:44.967Z,9.80
2022-07-25T04:54:12.067Z,9.32
2022-07-25T04:56:38.766Z,10.70
2022-07-25T04:59:06.722Z,9.77
2022-07-25T05:01:34.983Z,9.85
2022-07-25T05:04:01.897Z,10.30
2022-07-25T05:06:28.628Z,10.23
2022-07-25T05:08:55.627Z,10.73
2022-07-25T05:11:22.559Z,9.30
2022-07-25T05:13:49.216Z,10.35
2022-07-25T05:16:16.357Z,10.45
2022-07-25T05:18:43.158Z,10.18
2022-07-25T05:21:11.606Z,10.30
2022-07-25T05:23:38.740Z,10.07
2022-07-25T05:26:05.735Z,9.90
2022-07-25T05:28:32.395Z,10.48
2022-07-25T05:30:59.519Z,10.15
2022-07-25T05:33:26.647Z,9.90
2022-07-25T05:35:53.387Z,10.23
2022-07-25T05:38:20.641Z,9.05
2022-07-25T05:40:48.146Z,10.13
2022-07-25T05:43:14.855Z,10.52
2022-07-25T05:45:41.949Z,10.27
2022-07-25T05:48:08.589Z,9.43
2022-07-25T05:50:37.243Z,10.13
2022-07-25T05:53:04.184Z,10.43
2022-07-25T05:55:30.969Z,10.43
2022-07-25T05:57:57.868Z,10.57
2022-07-25T06:00:25.318Z,11.18
2022-07-25T06:02:52.465Z,10.10
2022-07-25T06:05:19.222Z,9.88
2022-07-25T06:07:45.919Z,10.10
2022-07-25T06:10:12.907Z,9.93
2022-07-25T06:12:39.639Z,11.25
2022-07-25T06:15:07.623Z,10.23
2022-07-25T06:17:39.818Z,9.55
2022-07-25T06:20:07.565Z,10.85
2022-07-25T06:22:35.279Z,10.35
2022-07-25T06:25:03.165Z,10.68
2022-07-25T06:27:29.828Z,11.88
2022-07-25T06:29:56.757Z,10.00
2022-07-25T06:32:23.900Z,11.12
2022-07-25T06:34:51.337Z,10.00
2022-07-25T06:37:17.988Z,9.68
2022-07-25T06:39:46.064Z,9.65
2022-07-25T06:42:12.942Z,9.25
2022-07-25T06:44:39.932Z,9.07
2022-07-25T06:47:12.520Z,9.25
2022-07-25T06:49:40.834Z,8.75
2022-07-25T06:52:08.515Z,9.18
2022-07-25T06:54:35.446Z,8.30
2022-07-25T06:57:02.135Z,8.55
2022-07-25T06:59:29.027Z,9.07
2022-07-25T07:01:55.776Z,9.57
2022-07-25T07:04:22.522Z,8.73
2022-07-25T07:06:49.477Z,8.73
2022-07-25T07:09:16.144Z,8.63
2022-07-25T07:11:42.830Z,9.00
2022-07-25T07:14:10.069Z,8.88
2022-07-25T07:16:36.974Z,9.13
2022-07-25T07:19:04.198Z,8.15
2022-07-25T07:21:31.418Z,8.70
2022-07-25T07:23:58.106Z,7.45
2022-07-25T07:26:24.847Z,8.38
2022-07-25T07:28:54.465Z,8.52
2022-07-25T07:31:21.375Z,8.00
2022-07-25T07:33:48.141Z,7.87
2022-07-25T07:36:15.158Z,8.00
2022-07-25T07:38:42.002Z,8.25
2022-07-25T07:41:08.631Z,8.00
2022-07-25T07:43:35.901Z,8.15
2022-07-25T07:46:02.907Z,8.75
2022-07-25T07:48:33.618Z,8.05
2022-07-25T07:51:01.995Z,7.80
2022-07-25T07:53:48.082Z,7.82
2022-07-25T07:56:16.453Z,7.80
2022-07-25T07:58:43.271Z,8.00
2022-07-25T08:01:09.969Z,7.53
2022-07-25T08:03:37.404Z,7.03
2022-07-25T08:06:05.314Z,7.28
2022-07-25T08:08:32.043Z,7.20
2022-07-25T08:10:59.765Z,7.47
2022-07-25T08:13:31.789Z,7.62
2022-07-25T08:16:01.873Z,7.37
2022-07-25T08:18:35.058Z,7.85
2022-07-25T08:21:04.174Z,6.35
2022-07-25T08:23:32.034Z,6.93
2022-07-25T08:25:59.435Z,6.82
2022-07-25T08:28:26.439Z,7.90
2022-07-25T08:30:53.602Z,7.57
2022-07-25T08:33:20.458Z,7.75
2022-07-25T08:35:53.529Z,6.47
2022-07-25T08:38:21.875Z,6.60
2022-07-25T08:40:49.298Z,6.65
2022-07-25T08:43:17.595Z,5.93
2022-07-25T08:45:49.476Z,6.93
2022-07-25T08:48:22.270Z,6.60
2022-07-25T08:50:50.183Z,6.62
2022-07-25T08:53:35.581Z,6.45
2022-07-25T08:56:12.525Z,5.97
2022-07-25T08:58:43.998Z,5.78
2022-07-25T09:01:12.595Z,6.55
2022-07-25T09:03:40.347Z,6.32
2022-07-25T09:06:20.907Z,5.90
2022-07-25T09:08:52.446Z,5.95
2022-07-25T09:11:31.284Z,6.45
2022-07-25T09:14:11.191Z,6.62
2022-07-25T09:16:44.857Z,5.70
2022-07-25T09:19:11.845Z,6.60
2022-07-25T09:21:39.961Z,6.05
2022-07-25T09:24:18.520Z,6.97
2022-07-25T09:26:48.323Z,6.43
2022-07-25T09:29:19.119Z,6.55
2022-07-25T09:31:46.194Z,6.50
2022-07-25T09:34:12.971Z,6.72
2022-07-25T09:36:52.388Z,7.97
2022-07-25T09:39:19.130Z,6.10
2022-07-25T09:41:46.066Z,5.80
2022-07-25T09:44:22.959Z,5.70
2022-07-25T09:46:50.552Z,5.95
2022-07-25T09:49:17.476Z,5.40
2022-07-25T09:51:44.647Z,5.22
2022-07-25T09:54:11.843Z,5.80
2022-07-25T09:56:38.604Z,6.00
2022-07-25T09:59:06.251Z,6.07
2022-07-25T10:01:38.082Z,5.30
2022-07-25T10:04:37.601Z,5.45
2022-07-25T10:07:09.859Z,5.68
2022-07-25T10:09:48.232Z,5.28
2022-07-25T10:12:20.022Z,4.95
2022-07-25T10:15:10.614Z,4.90
2022-07-25T10:17:39.273Z,5.07
2022-07-25T10:20:10.383Z,5.18
2022-07-25T10:22:57.374Z,4.55
2022-07-25T10:25:25.174Z,5.80
2022-07-25T10:27:59.882Z,5.60
2022-07-25T10:30:40.752Z,5.70
2022-07-25T10:33:15.994Z,5.28
2022-07-25T10:35:44.098Z,5.35
2022-07-25T10:38:11.266Z,5.12
2022-07-25T10:40:39.734Z,4.85
2022-07-25T10:43:13.875Z,5.00
2022-07-25T10:45:43.114Z,5.40
2022-07-25T10:48:21.775Z,4.95
2022-07-25T10:51:07.921Z,5.47
2022-07-25T10:53:39.482Z,5.35
2022-07-25T10:56:27.328Z,5.50
2022-07-25T10:58:57.153Z,4.62
2022-07-25T11:01:36.629Z,4.72
2022-07-25T11:04:15.728Z,4.82
2022-07-25T11:06:43.274Z,4.87
2022-07-25T11:09:17.971Z,4.70
2022-07-25T11:11:50.732Z,4.90
2022-07-25T11:14:23.611Z,4.95
2022-07-25T11:16:53.242Z,4.40
2022-07-25T11:19:38.239Z,4.82
2022-07-25T11:22:05.046Z,4.60
2022-07-25T11:24:40.460Z,7.57
2022-07-25T11:27:12.564Z,4.93
2022-07-25T11:29:40.738Z,5.30
2022-07-25T11:32:10.814Z,4.80
2022-07-25T11:34:41.415Z,5.18
2022-07-25T11:37:11.656Z,5.03
2022-07-25T11:39:41.180Z,4.78
2022-07-25T11:42:19.744Z,4.45
2022-07-25T11:44:52.806Z,5.07
2022-07-25T11:47:30.005Z,4.53
2022-07-25T11:50:01.706Z,5.07
2022-07-25T11:52:33.980Z,4.47
2022-07-25T11:55:03.902Z,4.43
2022-07-25T11:57:33.837Z,5.20
2022-07-25T12:00:02.842Z,4.87
2022-07-25T12:02:39.125Z,4.40
2022-07-25T12:05:11.344Z,4.25
2022-07-25T12:07:46.407Z,4.05
2022-07-25T12:10:18.939Z,3.83
2022-07-25T12:12:51.882Z,4.07
2022-07-25T12:15:28.205Z,4.05
2022-07-25T12:17:56.949Z,3.90
2022-07-25T12:20:27.867Z,4.00
2022-07-25T12:22:58.166Z,4.57
2022-07-25T12:25:30.492Z,4.00
2022-07-25T12:27:58.957Z,3.95
2022-07-25T12:30:28.694Z,3.95
2022-07-25T12:32:56.824Z,3.62
2022-07-25T12:35:24.464Z,3.78
2022-07-25T12:37:52.530Z,3.85
2022-07-25T12:40:19.588Z,3.22
2022-07-25T12:42:46.786Z,3.67
2022-07-25T12:45:15.553Z,3.67
2022-07-25T12:47:44.099Z,3.45
2022-07-25T12:50:11.210Z,3.28
2022-07-25T12:52:38.438Z,3.70
2022-07-25T12:55:07.929Z,3.28
2022-07-25T12:57:36.552Z,3.58
2022-07-25T13:00:10.798Z,3.78
2022-07-25T13:02:38.029Z,3.45
2022-07-25T13:05:05.909Z,4.05
2022-07-25T13:07:33.272Z,3.53
2022-07-25T13:10:00.750Z,3.97
2022-07-25T13:12:27.837Z,4.12
2022-07-25T13:14:54.745Z,3.33
2022-07-25T13:17:27.001Z,4.90
2022-07-25T13:19:55.338Z,3.70
2022-07-25T13:22:22.478Z,3.53
2022-07-25T13:24:49.250Z,3.78
2022-07-25T13:27:19.709Z,4.20
2022-07-25T13:29:47.119Z,3.33
2022-07-25T13:32:14.147Z,3.72
2022-07-25T13:34:41.244Z,3.72
2022-07-25T13:37:08.170Z,4.32
2022-07-25T13:39:35.822Z,4.87
2022-07-25T13:42:03.154Z,3.25
2022-07-25T13:44:29.973Z,3.08
2022-07-25T13:46:58.607Z,2.85
2022-07-25T13:49:25.936Z,3.53
2022-07-25T13:51:52.799Z,3.60
2022-07-25T13:54:19.507Z,3.70
2022-07-25T13:56:47.493Z,3.10
2022-07-25T13:59:20.455Z,3.72
2022-07-25T14:01:48.565Z,3.62
2022-07-25T14:04:16.086Z,3.10
2022-07-25T14:06:43.148Z,3.35
2022-07-25T14:09:10.260Z,3.25
2022-07-25T14:11:37.618Z,3.17
2022-07-25T14:14:04.335Z,3.30
2022-07-25T14:16:31.204Z,3.58
2022-07-25T14:18:58.225Z,2.87
2022-07-25T14:21:25.463Z,3.35
2022-07-25T14:23:52.558Z,3.42
2022-07-25T14:26:19.692Z,3.33
2022-07-25T14:28:46.430Z,3.17
2022-07-25T14:31:13.374Z,3.90
2022-07-25T14:33:40.628Z,3.75
2022-07-25T14:36:09.897Z,3.28
2022-07-25T14:38:36.914Z,3.65
2022-07-25T14:41:06.663Z,3.28
2022-07-25T14:43:37.553Z,3.53
2022-07-25T14:46:05.392Z,3.00
2022-07-25T14:48:32.253Z,3.03
2022-07-25T14:50:59.089Z,3.10
2022-07-25T14:53:26.002Z,3.22
2022-07-25T14:55:52.710Z,3.05
2022-07-25T14:58:19.469Z,3.47
2022-07-25T15:00:47.531Z,3.35
2022-07-25T15:03:15.442Z,3.40
2022-07-25T15:05:42.131Z,3.30
2022-07-25T15:08:09.392Z,3.40
2022-07-25T15:10:36.114Z,3.30
2022-07-25T15:13:28.635Z,3.10
2022-07-25T15:15:49.743Z,3.00
2022-07-25T15:18:16.449Z,2.80
2022-07-25T15:20:43.196Z,3.50
2022-07-25T15:23:10.285Z,3.10
2022-07-25T15:28:24.476Z,2.87
2022-07-25T15:30:51.749Z,2.87
2022-07-25T15:33:19.210Z,2.92
2022-07-25T15:35:47.257Z,3.00
2022-07-25T15:38:15.727Z,2.90
2022-07-25T15:40:44.216Z,2.72
2022-07-25T15:43:11.880Z,2.80
2022-07-25T15:45:43.974Z,3.05
2022-07-25T15:48:12.754Z,2.85
2022-07-25T15:50:43.168Z,2.95
2022-07-25T15:53:10.552Z,2.97
2022-07-25T15:55:39.129Z,2.70
2022-07-25T15:58:06.541Z,2.83
2022-07-25T16:00:33.919Z,2.85
2022-07-25T16:03:01.081Z,3.28
2022-07-25T16:05:28.053Z,3.17
2022-07-25T16:07:54.758Z,2.47
2022-07-25T16:10:21.852Z,2.50
2022-07-25T16:12:49.059Z,2.55
2022-07-25T16:15:16.245Z,2.78
2022-07-25T16:17:43.426Z,2.58
2022-07-25T16:20:11.211Z,2.85
2022-07-25T16:22:39.368Z,2.60
2022-07-25T16:25:06.772Z,2.28
2022-07-25T16:27:33.713Z,2.50
2022-07-25T16:30:01.057Z,2.80
2022-07-25T16:32:28.085Z,2.45
2022-07-25T16:34:54.826Z,2.70
2022-07-25T16:37:21.652Z,2.50
2022-07-25T16:39:48.719Z,2.80
2022-07-25T16:42:15.524Z,2.30
2022-07-25T16:44:42.788Z,2.33
2022-07-25T16:47:10.053Z,3.33
2022-07-25T16:49:36.988Z,2.28
2022-07-25T16:52:03.718Z,2.67
2022-07-25T16:54:30.664Z,2.42
2022-07-25T16:56:59.810Z,2.50
2022-07-25T16:59:26.819Z,3.28
2022-07-25T17:01:54.024Z,2.30
2022-07-25T17:04:20.999Z,2.80
2022-07-25T17:06:47.912Z,2.33
2022-07-25T17:09:15.079Z,4.00
2022-07-25T17:11:41.977Z,2.78
2022-07-25T17:14:08.621Z,2.40
2022-07-25T17:16:35.647Z,2.40
2022-07-25T17:19:03.220Z,2.70
2022-07-25T17:21:30.241Z,2.60
2022-07-25T17:23:57.317Z,2.70
2022-07-25T17:26:24.162Z,3.00
2022-07-25T17:28:50.872Z,3.10
2022-07-25T17:31:18.158Z,3.00
2022-07-25T17:33:45.093Z,3.42
2022-07-25T17:36:11.922Z,2.80
2022-07-25T17:38:38.991Z,2.75
2022-07-25T17:41:06.238Z,3.10
2022-07-25T17:43:32.925Z,3.10
2022-07-25T17:45:59.996Z,2.72
2022-07-25T17:48:27.085Z,3.33
2022-07-25T17:50:53.880Z,3.47
2022-07-25T17:53:20.835Z,3.75
2022-07-25T17:55:47.638Z,3.50
2022-07-25T17:58:14.724Z,3.75
2022-07-25T18:00:41.727Z,4.18
2022-07-25T18:03:08.976Z,4.75
2022-07-25T18:05:35.726Z,4.43
2022-07-25T18:08:03.174Z,5.10
2022-07-25T18:10:30.723Z,4.35
2022-07-25T18:13:00.245Z,4.72
2022-07-25T18:15:27.099Z,4.78
2022-07-25T18:17:54.187Z,4.55
2022-07-25T18:20:21.248Z,5.68
2022-07-25T18:22:48.075Z,5.10
2022-07-25T18:25:15.286Z,4.30
2022-07-25T18:27:44.526Z,3.92
2022-07-25T18:30:11.931Z,4.00
2022-07-25T18:32:39.516Z,3.80
2022-07-25T18:35:07.858Z,3.72
2022-07-25T18:37:36.982Z,3.87
2022-07-25T18:40:05.853Z,4.22
2022-07-25T18:42:32.885Z,3.90
2022-07-25T18:45:00.710Z,3.85
2022-07-25T18:47:30.967Z,4.45
2022-07-25T18:49:59.712Z,4.12
2022-07-25T18:52:27.409Z,4.60
2022-07-25T18:54:54.563Z,4.82
2022-07-25T18:57:21.328Z,6.05
2022-07-25T18:59:48.233Z,7.55
2022-07-25T19:02:15.404Z,5.32
2022-07-25T19:04:42.131Z,4.95
2022-07-25T19:07:09.228Z,4.65
2022-07-25T19:09:36.368Z,5.30
2022-07-25T19:12:03.297Z,4.85
2022-07-25T19:14:30.755Z,4.45
2022-07-25T19:16:59.026Z,4.85
2022-07-25T19:19:26.098Z,4.47
2022-07-25T19:21:53.327Z,4.18
2022-07-25T19:24:20.768Z,4.93
2022-07-25T19:26:48.767Z,4.25
2022-07-25T19:29:16.713Z,4.15
2022-07-25T19:31:44.389Z,4.22
2022-07-25T19:34:11.455Z,4.20
2022-07-25T19:36:38.697Z,4.40
2022-07-25T19:39:06.308Z,3.60
2022-07-25T19:41:33.638Z,3.87
2022-07-25T19:44:00.555Z,3.72
2022-07-25T19:46:31.364Z,3.22
2022-07-25T19:48:58.361Z,3.20
2022-07-25T19:51:25.448Z,5.37
2022-07-25T19:53:52.767Z,5.07
2022-07-25T19:56:20.156Z,4.62
2022-07-25T19:58:47.009Z,3.40
2022-07-25T20:01:14.491Z,3.72
2022-07-25T20:03:41.875Z,3.60
2022-07-25T20:06:09.149Z,3.85
2022-07-25T20:08:39.373Z,4.25
2022-07-25T20:11:07.617Z,4.13
2022-07-25T20:13:35.149Z,4.03
2022-07-25T20:16:03.862Z,4.00
2022-07-25T20:18:31.071Z,3.60
2022-07-25T20:20:58.390Z,4.35
2022-07-25T20:23:25.748Z,3.92
2022-07-25T20:25:52.785Z,4.57
2022-07-25T20:28:19.809Z,3.97
2022-07-25T20:30:46.606Z,3.83
2022-07-25T20:33:13.779Z,4.05
2022-07-25T20:35:40.641Z,3.92
2022-07-25T20:38:09.778Z,4.05
2022-07-25T20:40:46.404Z,3.72
2022-07-25T20:43:16.833Z,4.12
2022-07-25T20:45:44.040Z,3.67
2022-07-25T20:48:10.848Z,4.03
2022-07-25T20:50:37.917Z,4.10
2022-07-25T20:53:06.445Z,3.62
2022-07-25T20:55:34.187Z,3.25
2022-07-25T20:58:01.712Z,3.75
2022-07-25T21:00:30.555Z,3.50
2022-07-25T21:02:58.426Z,3.15
2022-07-25T21:05:26.141Z,2.95
2022-07-25T21:07:53.737Z,3.40
2022-07-25T21:10:20.982Z,3.30
2022-07-25T21:12:48.040Z,3.40
2022-07-25T21:15:15.387Z,3.37
2022-07-25T21:17:42.229Z,3.40
2022-07-25T21:20:11.739Z,3.85
2022-07-25T21:22:39.545Z,3.12
2022-07-25T21:25:07.259Z,2.90
2022-07-25T21:27:34.427Z,3.17
2022-07-25T21:30:01.757Z,3.47
2022-07-25T21:32:28.455Z,3.08
2022-07-25T21:34:55.235Z,3.33
2022-07-25T21:37:22.225Z,3.20
2022-07-25T21:39:48.863Z,3.60
2022-07-25T21:42:15.677Z,3.60
2022-07-25T21:44:44.030Z,3.33
2022-07-25T21:47:12.432Z,2.87
2022-07-25T21:49:57.734Z,3.40
2022-07-25T21:52:30.155Z,3.50
2022-07-25T21:55:02.665Z,3.37
2022-07-25T21:57:29.740Z,3.45
2022-07-25T21:59:56.458Z,3.30
2022-07-25T22:02:23.727Z,3.83
2022-07-25T22:04:50.930Z,3.70
2022-07-25T22:07:18.072Z,3.62
2022-07-25T22:09:45.041Z,3.78
2022-07-25T22:12:12.452Z,3.67
2022-07-25T22:14:39.204Z,3.95
2022-07-25T22:17:05.969Z,4.47
2022-07-25T22:19:33.390Z,4.70
2022-07-25T22:22:00.185Z,4.12
2022-07-25T22:24:27.012Z,4.47
2022-07-25T22:26:54.045Z,3.72
2022-07-25T22:29:21.098Z,3.92
2022-07-25T22:31:47.847Z,4.50
2022-07-25T22:34:14.893Z,4.20
2022-07-25T22:36:41.561Z,4.32
2022-07-25T22:39:08.524Z,4.50
2022-07-25T22:41:35.991Z,3.80
2022-07-25T22:44:02.995Z,4.35
2022-07-25T22:46:30.658Z,4.55
2022-07-25T22:48:58.870Z,4.78
2022-07-25T22:51:26.580Z,4.40
2022-07-25T22:53:53.934Z,4.28
2022-07-25T22:56:21.801Z,4.30
2022-07-25T22:58:48.778Z,4.57
2022-07-25T23:01:17.528Z,4.95
2022-07-25T23:03:45.342Z,4.78
2022-07-25T23:06:12.666Z,4.43
2022-07-25T23:08:39.439Z,4.90
2022-07-25T23:11:06.515Z,4.68
2022-07-25T23:13:34.321Z,5.03
2022-07-25T23:16:03.188Z,5.60
2022-07-25T23:18:31.214Z,4.80
2022-07-25T23:20:58.191Z,5.03
2022-07-25T23:23:25.074Z,4.78
2022-07-25T23:25:52.476Z,4.82
2022-07-25T23:28:19.137Z,4.43
2022-07-25T23:30:45.791Z,4.28
2022-07-25T23:33:12.855Z,4.28
2022-07-25T23:35:39.521Z,4.20
2022-07-25T23:38:06.178Z,4.40
2022-07-25T23:40:33.224Z,4.25
2022-07-25T23:43:00.103Z,4.50
2022-07-25T23:45:28.089Z,4.10
2022-07-25T23:47:56.549Z,4.35
2022-07-25T23:50:23.882Z,4.25
2022-07-25T23:52:51.090Z,4.05
2022-07-25T23:55:18.158Z,4.72
2022-07-25T23:57:44.839Z,4.03
